createdAt,value
2023-02-09T00:01:20.386Z,4.65
2023-02-09T00:03:46.807Z,4.66
2023-02-09T00:06:13.096Z,4.70
2023-02-09T00:08:39.471Z,4.68
2023-02-09T00:11:05.897Z,4.65
2023-02-09T00:13:32.278Z,4.59
2023-02-09T00:15:58.765Z,4.38
2023-02-09T00:18:25.116Z,4.12
2023-02-09T00:20:51.461Z,3.95
2023-02-09T00:23:17.798Z,3.86
2023-02-09T00:25:44.218Z,3.82
2023-02-09T00:28:10.587Z,3.82
2023-02-09T00:30:36.980Z,3.88
2023-02-09T00:33:03.301Z,3.95
2023-02-09T00:35:29.648Z,4.07
2023-02-09T00:37:56.040Z,4.15
2023-02-09T00:40:22.364Z,4.24
2023-02-09T00:42:48.705Z,4.31
2023-02-09T00:45:15.146Z,4.37
2023-02-09T00:47:41.487Z,4.40
2023-02-09T00:50:07.815Z,4.44
2023-02-09T00:52:34.170Z,4.48
2023-02-09T00:55:00.526Z,4.49
2023-02-09T00:57:26.865Z,4.43
2023-02-09T00:59:53.248Z,4.32
2023-02-09T01:02:19.580Z,4.09
2023-02-09T01:04:45.984Z,3.87
2023-02-09T01:07:12.291Z,3.69
2023-02-09T01:09:38.675Z,3.60
2023-02-09T01:12:05.032Z,3.56
2023-02-09T01:14:31.386Z,3.56
2023-02-09T01:16:57.781Z,3.59
2023-02-09T01:19:24.072Z,3.67
2023-02-09T01:21:50.483Z,3.80
2023-02-09T01:24:16.799Z,3.89
2023-02-09T01:26:43.184Z,3.93
2023-02-09T01:29:09.758Z,3.96
2023-02-09T01:31:36.280Z,3.78
2023-02-09T01:34:02.450Z,3.55
2023-02-09T01:36:28.937Z,3.39
2023-02-09T01:38:55.264Z,3.30
2023-02-09T01:41:21.649Z,3.26
2023-02-09T01:43:48.015Z,3.26
2023-02-09T01:46:14.528Z,3.31
2023-02-09T01:48:40.739Z,3.37
2023-02-09T01:51:07.117Z,3.41
2023-02-09T01:53:33.508Z,3.46
2023-02-09T01:55:59.808Z,3.48
2023-02-09T01:58:26.218Z,3.28
2023-02-09T02:00:52.575Z,3.10
2023-02-09T02:03:18.941Z,2.96
2023-02-09T02:05:45.309Z,2.91
2023-02-09T02:08:11.705Z,2.86
2023-02-09T02:10:38.030Z,2.84
2023-02-09T02:13:04.399Z,2.84
2023-02-09T02:15:30.765Z,2.88
2023-02-09T02:17:57.089Z,2.96
2023-02-09T02:20:23.453Z,3.03
2023-02-09T02:22:49.793Z,3.08
2023-02-09T02:25:16.178Z,3.10
2023-02-09T02:27:42.502Z,3.12
2023-02-09T02:30:08.879Z,3.15
2023-02-09T02:32:35.205Z,3.21
2023-02-09T02:35:01.568Z,3.23
2023-02-09T02:37:27.911Z,3.24
2023-02-09T02:39:54.289Z,3.31
2023-02-09T02:42:20.636Z,3.26
2023-02-09T02:44:46.998Z,3.03
2023-02-09T02:47:13.358Z,2.84
2023-02-09T02:49:39.743Z,2.71
2023-02-09T02:52:06.105Z,2.64
2023-02-09T02:54:32.483Z,2.61
2023-02-09T02:56:58.839Z,2.59
2023-02-09T02:59:25.184Z,2.57
2023-02-09T03:01:51.575Z,2.61
2023-02-09T03:04:17.864Z,2.63
2023-02-09T03:06:44.268Z,2.71
2023-02-09T03:09:10.582Z,2.78
2023-02-09T03:11:36.969Z,2.83
2023-02-09T03:14:03.362Z,2.71
2023-02-09T03:16:29.725Z,2.59
2023-02-09T03:18:56.055Z,2.51
2023-02-09T03:21:22.366Z,2.47
2023-02-09T03:23:48.786Z,2.44
2023-02-09T03:26:15.102Z,2.44
2023-02-09T03:28:41.461Z,2.46
2023-02-09T03:31:07.945Z,2.51
2023-02-09T03:33:34.209Z,2.55
2023-02-09T03:36:00.545Z,2.65
2023-02-09T03:38:26.906Z,2.70
2023-02-09T03:40:53.310Z,2.63
2023-02-09T03:43:19.660Z,2.48
2023-02-09T03:45:46.010Z,2.39
2023-02-09T03:48:12.442Z,2.33
2023-02-09T03:50:38.794Z,2.31
2023-02-09T03:53:05.172Z,2.32
2023-02-09T03:55:31.526Z,2.35
2023-02-09T03:57:57.887Z,2.40
2023-02-09T04:00:24.197Z,2.43
2023-02-09T04:02:50.655Z,2.48
2023-02-09T04:05:16.889Z,2.56
2023-02-09T04:07:43.228Z,2.66
2023-02-09T04:10:09.599Z,2.64
2023-02-09T04:12:35.940Z,2.48
2023-02-09T04:15:02.257Z,2.35
2023-02-09T04:17:28.689Z,2.30
2023-02-09T04:19:55.010Z,2.28
2023-02-09T04:22:21.367Z,2.28
2023-02-09T04:24:47.735Z,2.31
2023-02-09T04:27:14.093Z,2.39
2023-02-09T04:29:40.407Z,2.43
2023-02-09T04:32:06.997Z,2.50
2023-02-09T04:34:33.201Z,2.49
2023-02-09T04:36:59.586Z,2.34
2023-02-09T04:39:25.951Z,2.24
2023-02-09T04:41:52.324Z,2.16
2023-02-09T04:44:18.698Z,2.15
2023-02-09T04:46:45.798Z,2.14
2023-02-09T04:49:11.467Z,2.13
2023-02-09T04:51:37.804Z,2.19
2023-02-09T04:54:04.146Z,2.22
2023-02-09T04:56:30.524Z,2.28
2023-02-09T04:58:56.877Z,2.25
2023-02-09T05:01:23.557Z,2.11
2023-02-09T05:03:49.932Z,2.01
2023-02-09T05:06:16.252Z,1.97
2023-02-09T05:08:42.610Z,1.96
2023-02-09T05:11:08.985Z,1.97
2023-02-09T05:13:35.381Z,1.97
2023-02-09T05:16:01.726Z,2.04
2023-02-09T05:18:28.331Z,2.08
2023-02-09T05:20:54.675Z,2.03
2023-02-09T05:23:20.985Z,1.94
2023-02-09T05:25:47.402Z,1.81
2023-02-09T05:28:13.785Z,1.82
2023-02-09T05:30:40.144Z,1.85
2023-02-09T05:33:06.566Z,1.88
2023-02-09T05:35:32.926Z,1.90
2023-02-09T05:37:59.237Z,1.93
2023-02-09T05:40:25.622Z,1.99
2023-02-09T05:42:51.931Z,2.01
2023-02-09T05:45:18.326Z,1.97
2023-02-09T05:47:44.675Z,2.01
2023-02-09T05:50:11.078Z,2.11
2023-02-09T05:52:37.493Z,2.27
2023-02-09T05:55:03.808Z,2.47
2023-02-09T05:57:30.197Z,3.33
2023-02-09T05:59:56.543Z,3.80
2023-02-09T06:02:22.979Z,3.94
2023-02-09T06:04:49.296Z,4.07
2023-02-09T06:07:15.707Z,4.22
2023-02-09T06:09:42.029Z,4.41
2023-02-09T06:12:08.369Z,4.61
2023-02-09T06:14:34.924Z,4.80
2023-02-09T06:17:01.305Z,4.98
2023-02-09T06:19:27.657Z,5.15
2023-02-09T06:21:54.041Z,5.33
2023-02-09T06:24:20.362Z,5.50
2023-02-09T06:26:46.736Z,5.64
2023-02-09T06:29:13.138Z,5.76
2023-02-09T06:31:39.552Z,5.88
2023-02-09T06:34:05.916Z,6.03
2023-02-09T06:36:32.357Z,6.17
2023-02-09T06:38:58.662Z,6.33
2023-02-09T06:41:25.297Z,6.50
2023-02-09T06:43:51.718Z,6.67
2023-02-09T06:46:18.155Z,6.84
2023-02-09T06:48:44.425Z,7.04
2023-02-09T06:51:10.863Z,7.26
2023-02-09T06:53:37.197Z,7.51
2023-02-09T06:56:03.638Z,7.75
2023-02-09T06:58:30.008Z,8.02
2023-02-09T07:00:56.342Z,8.29
2023-02-09T07:03:22.706Z,8.58
2023-02-09T07:05:49.154Z,8.92
2023-02-09T07:08:15.672Z,9.30
2023-02-09T07:10:42.053Z,9.69
2023-02-09T07:13:08.579Z,10.13
2023-02-09T07:15:34.932Z,10.51
2023-02-09T07:18:01.266Z,10.84
2023-02-09T07:20:27.659Z,11.15
2023-02-09T07:22:54.018Z,11.50
2023-02-09T07:25:20.478Z,11.82
2023-02-09T07:27:46.768Z,12.14
2023-02-09T07:30:13.189Z,12.45
2023-02-09T07:32:39.534Z,12.77
2023-02-09T07:35:05.932Z,13.06
2023-02-09T07:37:32.324Z,13.35
2023-02-09T07:39:58.715Z,13.60
2023-02-09T07:42:25.111Z,13.84
2023-02-09T07:44:51.505Z,14.07
2023-02-09T07:47:17.833Z,14.30
2023-02-09T07:49:44.288Z,14.51
2023-02-09T07:52:10.909Z,14.73
2023-02-09T07:54:37.349Z,14.95
2023-02-09T07:57:03.671Z,15.15
2023-02-09T07:59:30.021Z,15.36
2023-02-09T08:01:56.559Z,15.57
2023-02-09T08:04:22.989Z,15.78
2023-02-09T08:06:49.319Z,15.99
2023-02-09T08:09:15.715Z,16.19
2023-02-09T08:11:43.950Z,16.38
2023-02-09T08:14:08.614Z,16.59
2023-02-09T08:16:35.053Z,16.78
2023-02-09T08:19:01.416Z,16.97
2023-02-09T08:21:27.747Z,17.18
2023-02-09T08:23:54.126Z,17.38
2023-02-09T08:26:20.447Z,17.61
2023-02-09T08:28:46.992Z,17.83
2023-02-09T08:31:13.190Z,18.04
2023-02-09T08:33:39.975Z,18.26
2023-02-09T08:36:06.304Z,18.46
2023-02-09T08:38:32.703Z,18.65
2023-02-09T08:40:59.070Z,18.85
2023-02-09T08:43:25.412Z,19.05
2023-02-09T08:45:52.296Z,19.25
2023-02-09T08:48:18.368Z,19.43
2023-02-09T08:50:44.797Z,19.60
2023-02-09T08:53:11.201Z,19.76
2023-02-09T08:55:37.513Z,19.91
2023-02-09T08:58:03.892Z,20.05
2023-02-09T09:00:30.191Z,20.24
2023-02-09T09:02:56.795Z,20.43
2023-02-09T09:05:23.198Z,20.61
2023-02-09T09:07:49.528Z,20.79
2023-02-09T09:10:15.895Z,20.97
2023-02-09T09:12:42.232Z,21.12
2023-02-09T09:15:11.741Z,21.28
2023-02-09T09:17:38.129Z,21.45
2023-02-09T09:20:04.778Z,21.60
2023-02-09T09:22:31.211Z,21.74
2023-02-09T09:24:57.552Z,21.89
2023-02-09T09:27:26.106Z,22.05
2023-02-09T09:29:50.288Z,22.21
2023-02-09T09:32:16.722Z,22.40
2023-02-09T09:34:42.980Z,22.57
2023-02-09T09:37:09.372Z,22.75
2023-02-09T09:39:35.708Z,22.93
2023-02-09T09:42:02.101Z,23.10
2023-02-09T09:44:28.464Z,23.28
2023-02-09T09:46:54.861Z,23.45
2023-02-09T09:49:21.739Z,23.61
2023-02-09T09:51:48.100Z,23.79
2023-02-09T09:54:14.425Z,23.97
2023-02-09T09:56:40.811Z,24.13
2023-02-09T09:59:07.280Z,24.30
2023-02-09T10:01:33.694Z,24.44
2023-02-09T10:03:59.995Z,24.59
2023-02-09T10:06:26.605Z,24.75
2023-02-09T10:08:52.927Z,24.93
2023-02-09T10:11:19.268Z,25.08
2023-02-09T10:13:46.834Z,25.24
2023-02-09T10:16:13.169Z,25.40
2023-02-09T10:18:39.586Z,25.55
2023-02-09T10:21:06.401Z,25.72
2023-02-09T10:23:32.798Z,25.91
2023-02-09T10:25:59.161Z,26.05
2023-02-09T10:28:25.558Z,26.20
2023-02-09T10:30:51.952Z,26.34
2023-02-09T10:33:18.265Z,26.46
2023-02-09T10:35:45.063Z,26.56
2023-02-09T10:38:11.067Z,26.66
2023-02-09T10:40:37.492Z,26.76
2023-02-09T10:43:03.847Z,26.83
2023-02-09T10:45:30.197Z,26.91
2023-02-09T10:47:56.607Z,27.01
2023-02-09T10:50:22.946Z,27.04
2023-02-09T10:52:49.287Z,27.09
2023-02-09T10:55:15.662Z,27.14
2023-02-09T10:57:42.084Z,27.14
2023-02-09T11:00:08.466Z,27.15
2023-02-09T11:02:34.802Z,27.19
2023-02-09T11:05:01.164Z,27.18
2023-02-09T11:07:27.500Z,27.23
2023-02-09T11:09:54.021Z,27.27
2023-02-09T11:12:20.348Z,27.32
2023-02-09T11:14:46.732Z,27.35
2023-02-09T11:17:13.092Z,27.38
2023-02-09T11:19:39.518Z,27.38
2023-02-09T11:22:05.914Z,27.38
2023-02-09T11:24:32.245Z,27.40
2023-02-09T11:27:00.732Z,27.39
2023-02-09T11:29:27.063Z,27.39
2023-02-09T11:31:53.837Z,27.41
2023-02-09T11:34:20.123Z,27.44
2023-02-09T11:36:46.442Z,27.46
2023-02-09T11:39:12.934Z,27.49
2023-02-09T11:41:39.361Z,27.51
2023-02-09T11:44:05.647Z,27.49
2023-02-09T11:46:32.022Z,27.52
2023-02-09T11:48:58.330Z,27.55
2023-02-09T11:51:24.761Z,27.59
2023-02-09T11:53:51.112Z,27.58
2023-02-09T11:56:17.431Z,27.58
2023-02-09T11:58:43.957Z,27.57
2023-02-09T12:01:15.898Z,27.58
2023-02-09T12:03:36.684Z,27.58
2023-02-09T12:06:03.076Z,27.62
2023-02-09T12:08:29.473Z,27.62
2023-02-09T12:10:55.829Z,27.58
2023-02-09T12:13:22.203Z,27.52
2023-02-09T12:15:48.728Z,27.46
2023-02-09T12:18:15.128Z,27.39
2023-02-09T12:20:42.605Z,27.34
2023-02-09T12:23:08.959Z,27.31
2023-02-09T12:25:35.313Z,27.29
2023-02-09T12:28:01.872Z,27.23
2023-02-09T12:30:28.144Z,27.20
2023-02-09T12:32:54.525Z,27.17
2023-02-09T12:35:20.934Z,27.15
2023-02-09T12:37:47.319Z,27.13
2023-02-09T12:40:13.753Z,27.09
2023-02-09T12:42:40.086Z,27.05
2023-02-09T12:45:06.564Z,27.00
2023-02-09T12:47:32.917Z,26.97
2023-02-09T12:49:59.238Z,26.92
2023-02-09T12:52:25.813Z,26.85
2023-02-09T12:54:52.171Z,26.78
2023-02-09T12:57:18.517Z,26.71
2023-02-09T12:59:45.096Z,26.64
2023-02-09T13:02:11.462Z,26.56
2023-02-09T13:04:37.893Z,26.49
2023-02-09T13:07:04.557Z,26.42
2023-02-09T13:09:30.897Z,26.34
2023-02-09T13:11:57.248Z,26.25
2023-02-09T13:14:23.631Z,26.15
2023-02-09T13:16:50.078Z,26.06
2023-02-09T13:19:16.427Z,26.00
2023-02-09T13:21:42.772Z,25.90
2023-02-09T13:24:09.124Z,25.80
2023-02-09T13:26:35.477Z,25.69
2023-02-09T13:29:11.634Z,25.60
2023-02-09T13:31:28.498Z,25.48
2023-02-09T13:33:54.783Z,25.34
2023-02-09T13:36:24.979Z,25.22
2023-02-09T13:38:47.675Z,25.09
2023-02-09T13:41:14.549Z,24.95
2023-02-09T13:43:41.099Z,24.78
2023-02-09T13:46:07.464Z,24.60
2023-02-09T13:48:33.810Z,24.41
2023-02-09T13:51:00.277Z,24.25
2023-02-09T13:53:26.591Z,24.04
2023-02-09T13:55:53.032Z,23.91
2023-02-09T13:58:19.363Z,23.80
2023-02-09T14:00:45.791Z,23.67
2023-02-09T14:03:12.683Z,23.44
2023-02-09T14:05:38.912Z,23.06
2023-02-09T14:08:05.228Z,22.70
2023-02-09T14:10:31.568Z,22.37
2023-02-09T14:12:57.938Z,21.97
2023-02-09T14:15:24.722Z,21.65
2023-02-09T14:17:51.418Z,21.39
2023-02-09T14:20:17.760Z,21.20
2023-02-09T14:22:44.122Z,20.99
2023-02-09T14:25:10.525Z,20.77
2023-02-09T14:27:36.888Z,20.62
2023-02-09T14:30:03.336Z,20.46
2023-02-09T14:32:33.099Z,20.32
2023-02-09T14:34:56.022Z,20.17
2023-02-09T14:37:22.401Z,19.96
2023-02-09T14:39:48.758Z,19.80
2023-02-09T14:42:15.403Z,19.64
2023-02-09T14:44:41.814Z,19.48
2023-02-09T14:47:08.158Z,19.29
2023-02-09T14:49:34.828Z,19.11
2023-02-09T14:52:01.969Z,18.98
2023-02-09T14:54:28.329Z,18.86
2023-02-09T14:56:58.490Z,18.68
2023-02-09T14:59:23.527Z,18.47
2023-02-09T15:01:52.400Z,18.31
2023-02-09T15:04:19.663Z,18.13
2023-02-09T15:06:46.420Z,17.92
2023-02-09T15:09:13.338Z,17.79
2023-02-09T15:11:42.995Z,17.63
2023-02-09T15:14:10.516Z,17.44
2023-02-09T15:16:37.924Z,17.27
2023-02-09T15:19:04.389Z,17.10
2023-02-09T15:21:33.186Z,16.98
2023-02-09T15:24:00.781Z,16.81
2023-02-09T15:26:37.104Z,16.65
2023-02-09T15:29:05.754Z,16.48
2023-02-09T15:31:33.223Z,16.30
2023-02-09T15:33:59.614Z,16.19
2023-02-09T15:36:25.870Z,16.02
2023-02-09T15:38:52.249Z,15.88
2023-02-09T15:41:18.614Z,15.74
2023-02-09T15:43:45.007Z,15.58
2023-02-09T15:46:11.403Z,15.42
2023-02-09T15:48:37.717Z,15.28
2023-02-09T15:51:04.011Z,15.14
2023-02-09T15:53:30.757Z,15.03
2023-02-09T15:55:58.779Z,14.88
2023-02-09T15:58:23.541Z,14.74
2023-02-09T16:00:49.925Z,14.59
2023-02-09T16:03:16.331Z,14.49
2023-02-09T16:05:43.047Z,14.40
2023-02-09T16:08:11.571Z,14.23
2023-02-09T16:10:38.067Z,14.10
2023-02-09T16:13:04.492Z,13.95
2023-02-09T16:15:33.156Z,13.82
2023-02-09T16:17:59.486Z,13.71
2023-02-09T16:20:26.437Z,13.59
2023-02-09T16:22:52.438Z,13.48
2023-02-09T16:25:18.796Z,13.35
2023-02-09T16:27:45.142Z,13.21
2023-02-09T16:30:13.632Z,13.12
2023-02-09T16:32:40.138Z,13.03
2023-02-09T16:35:16.382Z,12.90
2023-02-09T16:37:32.855Z,12.77
2023-02-09T16:39:59.266Z,12.61
2023-02-09T16:42:25.573Z,12.44
2023-02-09T16:44:51.928Z,12.31
2023-02-09T16:47:18.300Z,12.22
2023-02-09T16:49:44.686Z,12.10
2023-02-09T16:52:11.007Z,11.99
2023-02-09T16:54:37.404Z,11.90
2023-02-09T16:57:03.853Z,11.79
2023-02-09T16:59:30.519Z,11.64
2023-02-09T17:01:58.056Z,11.53
2023-02-09T17:04:24.402Z,11.39
2023-02-09T17:06:50.823Z,11.27
2023-02-09T17:09:17.249Z,11.18
2023-02-09T17:11:43.856Z,11.10
2023-02-09T17:14:10.226Z,11.02
2023-02-09T17:16:36.588Z,10.95
2023-02-09T17:19:02.958Z,10.89
2023-02-09T17:21:29.354Z,10.82
2023-02-09T17:23:56.849Z,10.74
2023-02-09T17:26:23.175Z,10.68
2023-02-09T17:28:49.511Z,10.62
2023-02-09T17:31:17.903Z,10.54
2023-02-09T17:33:44.197Z,10.48
2023-02-09T17:36:25.707Z,10.42
2023-02-09T17:38:37.705Z,10.34
2023-02-09T17:41:04.028Z,10.28
2023-02-09T17:43:31.315Z,10.23
2023-02-09T17:45:57.738Z,10.13
2023-02-09T17:48:24.398Z,10.04
2023-02-09T17:50:53.170Z,9.97
2023-02-09T17:53:19.762Z,9.90
2023-02-09T17:55:46.383Z,9.84
2023-02-09T17:58:12.472Z,9.77
2023-02-09T18:00:38.965Z,9.70
2023-02-09T18:03:05.473Z,9.64
2023-02-09T18:05:31.991Z,9.57
2023-02-09T18:07:58.404Z,9.49
2023-02-09T18:10:24.792Z,9.42
2023-02-09T18:12:53.441Z,9.37
2023-02-09T18:15:19.868Z,9.32
2023-02-09T18:17:49.972Z,9.24
2023-02-09T18:20:16.308Z,9.17
2023-02-09T18:22:42.698Z,9.09
2023-02-09T18:25:09.032Z,9.03
2023-02-09T18:27:35.417Z,8.96
2023-02-09T18:30:01.810Z,8.89
2023-02-09T18:32:28.140Z,8.83
2023-02-09T18:34:54.576Z,8.77
2023-02-09T18:37:21.280Z,8.70
2023-02-09T18:39:47.603Z,8.88
2023-02-09T18:42:13.992Z,8.87
2023-02-09T18:44:40.426Z,8.76
2023-02-09T18:47:06.806Z,8.64
2023-02-09T18:49:33.102Z,8.56
2023-02-09T18:51:59.636Z,8.46
2023-02-09T18:54:28.338Z,8.38
2023-02-09T18:56:53.490Z,8.32
2023-02-09T18:59:19.894Z,8.24
2023-02-09T19:01:46.308Z,8.18
2023-02-09T19:04:12.609Z,8.11
2023-02-09T19:06:38.965Z,8.06
2023-02-09T19:09:05.331Z,8.00
2023-02-09T19:11:32.750Z,7.94
2023-02-09T19:13:59.362Z,7.89
2023-02-09T19:16:25.773Z,7.85
2023-02-09T19:18:52.324Z,7.81
2023-02-09T19:21:18.877Z,7.77
2023-02-09T19:23:45.309Z,7.76
2023-02-09T19:26:11.706Z,7.70
2023-02-09T19:28:38.080Z,7.65
2023-02-09T19:31:04.487Z,7.57
2023-02-09T19:33:30.904Z,7.53
2023-02-09T19:35:57.395Z,7.45
2023-02-09T19:38:23.778Z,7.42
2023-02-09T19:40:52.649Z,7.37
2023-02-09T19:43:16.650Z,7.34
2023-02-09T19:45:43.050Z,7.28
2023-02-09T19:48:09.382Z,7.25
2023-02-09T19:50:35.737Z,7.21
2023-02-09T19:53:02.220Z,7.18
2023-02-09T19:55:28.607Z,7.17
2023-02-09T19:57:54.929Z,7.13
2023-02-09T20:00:21.339Z,7.10
2023-02-09T20:02:48.147Z,7.06
2023-02-09T20:05:14.418Z,7.03
2023-02-09T20:07:40.942Z,6.99
2023-02-09T20:10:07.331Z,6.96
2023-02-09T20:12:33.716Z,6.93
2023-02-09T20:15:00.124Z,6.89
2023-02-09T20:17:26.473Z,6.86
2023-02-09T20:19:52.834Z,6.81
2023-02-09T20:22:19.178Z,6.77
2023-02-09T20:24:45.568Z,6.73
2023-02-09T20:27:11.911Z,6.70
2023-02-09T20:29:38.389Z,6.66
2023-02-09T20:32:04.754Z,6.64
2023-02-09T20:34:31.114Z,6.61
2023-02-09T20:36:57.592Z,6.56
2023-02-09T20:39:24.065Z,6.53
2023-02-09T20:41:50.745Z,6.50
2023-02-09T20:44:17.498Z,6.45
2023-02-09T20:46:43.824Z,6.42
2023-02-09T20:49:10.229Z,6.39
2023-02-09T20:51:36.567Z,6.36
2023-02-09T20:54:02.940Z,6.33
2023-02-09T20:56:29.310Z,6.30
2023-02-09T20:58:55.688Z,6.28
2023-02-09T21:01:22.086Z,6.26
2023-02-09T21:03:48.464Z,6.25
2023-02-09T21:06:15.801Z,6.21
2023-02-09T21:08:42.240Z,6.16
2023-02-09T21:11:08.596Z,6.14
2023-02-09T21:13:35.001Z,6.12
2023-02-09T21:16:03.290Z,6.10
2023-02-09T21:18:28.004Z,6.05
2023-02-09T21:20:54.317Z,6.06
2023-02-09T21:23:20.920Z,6.03
2023-02-09T21:25:47.454Z,6.00
2023-02-09T21:28:13.888Z,5.97
2023-02-09T21:30:40.863Z,5.95
2023-02-09T21:33:06.544Z,5.90
2023-02-09T21:35:32.853Z,5.87
2023-02-09T21:37:59.291Z,5.85
2023-02-09T21:40:25.651Z,5.83
2023-02-09T21:42:52.030Z,5.80
2023-02-09T21:45:18.480Z,5.76
2023-02-09T21:47:45.077Z,5.73
2023-02-09T21:50:11.477Z,5.70
2023-02-09T21:52:37.832Z,5.66
2023-02-09T21:55:04.389Z,5.64
2023-02-09T21:57:30.704Z,5.65
2023-02-09T21:59:57.066Z,5.67
2023-02-09T22:02:23.456Z,5.70
2023-02-09T22:04:49.863Z,5.72
2023-02-09T22:07:16.321Z,5.70
2023-02-09T22:09:42.712Z,5.68
2023-02-09T22:12:09.067Z,5.65
2023-02-09T22:14:35.428Z,5.62
2023-02-09T22:17:01.823Z,5.60
2023-02-09T22:19:28.202Z,5.57
2023-02-09T22:21:54.561Z,5.55
2023-02-09T22:24:20.874Z,5.52
2023-02-09T22:26:47.261Z,5.51
2023-02-09T22:29:13.825Z,5.48
2023-02-09T22:31:40.777Z,5.48
2023-02-09T22:34:07.047Z,5.44
2023-02-09T22:36:33.430Z,5.41
2023-02-09T22:38:59.804Z,5.39
2023-02-09T22:41:26.196Z,5.35
2023-02-09T22:43:52.547Z,5.32
2023-02-09T22:46:18.971Z,5.29
2023-02-09T22:48:45.244Z,5.27
2023-02-09T22:51:11.582Z,5.24
2023-02-09T22:53:37.998Z,5.22
2023-02-09T22:56:04.334Z,5.19
2023-02-09T22:58:30.684Z,5.17
2023-02-09T23:00:57.137Z,5.15
2023-02-09T23:03:23.460Z,5.13
2023-02-09T23:05:49.964Z,5.10
2023-02-09T23:08:16.504Z,5.08
2023-02-09T23:10:42.896Z,5.06
2023-02-09T23:13:09.293Z,5.03
2023-02-09T23:15:35.746Z,5.01
2023-02-09T23:18:02.060Z,4.97
2023-02-09T23:20:28.404Z,4.95
2023-02-09T23:22:54.847Z,4.96
2023-02-09T23:25:21.209Z,4.93
2023-02-09T23:27:47.532Z,4.92
2023-02-09T23:30:13.873Z,4.89
2023-02-09T23:32:40.249Z,4.85
2023-02-09T23:35:06.615Z,4.83
2023-02-09T23:37:39.902Z,4.82
2023-02-09T23:39:59.357Z,4.79
2023-02-09T23:42:25.667Z,4.78
2023-02-09T23:44:52.022Z,4.76
2023-02-09T23:47:18.354Z,4.74
2023-02-09T23:49:44.692Z,4.71
2023-02-09T23:52:11.015Z,4.70
2023-02-09T23:54:37.405Z,4.68
2023-02-09T23:57:03.739Z,4.65
2023-02-09T23:59:30.170Z,4.63
